Airfield :
LOGIN :

Register | Disclaimer

   EN    FR    IT 

 










Legend :    VFR   Marginal VFR   IFR   Intensive IFR   Very Intensive IFR
Visi :
Ceiling :
>= 8 km
>= 3000ft
5 to 8 km
1000 to 3000 ft
1500m to 5 km
500 to 1000 ft
800 to 1500m
200 to 500 ft
< 800m
< 200 ft
Symbols :   Thunderstorms  Fog  Heavy snow  Heavy precipitations  Wind > 20 kt
SIGMETs :     Misc.  Thunderstorms  Icing  Turbulence  Mountain Waves  Volcanic Ashes






- Airport Elevation : 961 ft
- IATA code : VIN


UKWW - Gavryshivka

CURRENT METAR :
  • 191130Z 17004MPS 140V220 CAVOK 21/08 Q1018 NOSIG

EXPIRED METARs :
  • 191100Z 18004MPS 150V210 CAVOK 21/08 Q1019 NOSIG
  • 191030Z 18003MPS 140V230 CAVOK 21/08 Q1019 NOSIG
  • 191000Z 17006MPS CAVOK 21/08 Q1019 NOSIG
  • 190930Z 20005MPS 170V250 CAVOK 20/08 Q1019 NOSIG
  • 190900Z 19005MPS 160V230 CAVOK 20/08 Q1019 NOSIG

TAF TAF UKWW
Valid from the 19 at 12:00 until the 19 at 21:00 UTC


191110Z 1912/1921 19005MPS 9999 SCT030



MET'MAP, your aeronautical weather chart ! - Copyright ORBIFLY December 2007 - Disclaimer

ORBIFLY MET'MAP TEAM :

Programming & Development : Alexandra Zaïnal
Concept & Development : Baudouin d'Aumeries
Co-Development & Prog : Marc-Olivier Méhu
Technical & hardware support : Manuel Goepfert

Contact : metmap@orbifly.com




SOURCES & CREDITS :

   NOAA